Time;durP1;ratioP1;P1;durP2;ratioP2;P2;SDS_P1;SDS_P2;PMS_P1;PMS_P2;Temp;Humidity;BMP_temperature;BMP_pressure;BME280_temperature;BME280_humidity;BME280_pressure;Samples;Min_cycle;Max_cycle;Signal;HPM_P1;HPM_P2
2022/09/25 00:00:08;;;;;;;5.65;3.53;;;16.90;81.40;;;;;;5028234;28;20366;-75
2022/09/25 00:02:34;;;;;;;5.47;3.65;;;16.90;81.40;;;;;;5046417;28;20036;-76
2022/09/25 00:04:59;;;;;;;6.18;3.50;;;16.90;81.50;;;;;;5047418;28;20055;-75
2022/09/25 00:07:25;;;;;;;5.40;3.22;;;16.90;82.10;;;;;;5029728;28;20485;-76
2022/09/25 00:09:50;;;;;;;5.45;3.28;;;16.90;81.50;;;;;;5046627;28;20028;-76
2022/09/25 00:12:16;;;;;;;5.53;3.35;;;16.90;81.50;;;;;;5028539;28;20029;-76
2022/09/25 00:14:41;;;;;;;5.50;3.42;;;16.90;81.50;;;;;;5029109;28;20033;-76
2022/09/25 00:17:06;;;;;;;5.60;3.45;;;16.90;81.50;;;;;;5029000;28;20035;-77
2022/09/25 00:19:50;;;;;;;6.05;3.65;;;16.90;81.50;;;;;;5046989;28;20362;-76
2022/09/25 00:22:17;;;;;;;5.90;3.05;;;16.90;81.50;;;;;;5045821;28;20025;-76
2022/09/25 00:24:43;;;;;;;5.93;3.50;;;16.90;81.50;;;;;;5029259;28;20033;-76
2022/09/25 00:27:08;;;;;;;5.57;3.58;;;16.90;81.60;;;;;;5045248;28;20449;-76
2022/09/25 00:29:35;;;;;;;5.65;3.30;;;16.90;81.60;;;;;;5047704;28;20031;-75
2022/09/25 00:32:02;;;;;;;5.30;3.35;;;16.90;81.60;;;;;;5046985;28;20033;-75
2022/09/25 00:34:27;;;;;;;5.60;3.35;;;16.90;81.60;;;;;;5046837;28;20120;-76
2022/09/25 00:36:53;;;;;;;5.55;3.28;;;16.90;81.50;;;;;;5028826;28;20133;-76
2022/09/25 00:39:18;;;;;;;6.00;3.45;;;16.90;81.50;;;;;;5028714;28;20024;-75
2022/09/25 00:41:44;;;;;;;5.47;3.35;;;16.90;81.50;;;;;;5026889;28;20025;-74
2022/09/25 00:44:47;;;;;;;5.03;3.30;;;16.90;81.50;;;;;;5044697;28;20029;-76
2022/09/25 00:47:19;;;;;;;4.95;3.15;;;17.00;81.60;;;;;;5045170;28;20132;-76
2022/09/25 00:49:46;;;;;;;5.55;3.22;;;16.90;81.50;;;;;;5038008;28;20142;-76
2022/09/25 00:52:13;;;;;;;5.43;3.10;;;17.00;81.40;;;;;;5046333;28;20056;-76
2022/09/25 00:54:48;;;;;;;5.75;3.45;;;16.90;81.40;;;;;;5044436;28;20033;-75
2022/09/25 00:57:18;;;;;;;4.80;3.00;;;16.90;81.40;;;;;;5044094;28;20032;-76
2022/09/25 00:59:48;;;;;;;4.47;3.08;;;16.90;81.50;;;;;;5044747;28;20033;-76
2022/09/25 01:02:28;;;;;;;6.95;3.33;;;16.90;81.50;;;;;;5027322;28;20658;-77
2022/09/25 01:04:58;;;;;;;6.05;3.20;;;16.90;81.50;;;;;;5044645;28;20029;-77
2022/09/25 01:07:24;;;;;;;5.10;3.10;;;16.90;81.50;;;;;;5049630;28;20024;-77
2022/09/25 01:09:49;;;;;;;5.05;3.10;;;16.90;81.50;;;;;;5046976;28;20994;-76
2022/09/25 01:12:15;;;;;;;5.07;3.00;;;16.90;81.60;;;;;;5045448;28;20036;-77
2022/09/25 01:14:42;;;;;;;5.65;3.40;;;16.90;81.60;;;;;;5027368;28;20033;-75
2022/09/25 01:17:27;;;;;;;5.57;3.08;;;16.90;81.60;;;;;;5045259;28;20569;-76
2022/09/25 01:20:20;;;;;;;5.55;3.22;;;16.90;81.70;;;;;;5027272;28;20589;-75
2022/09/25 01:23:00;;;;;;;5.82;3.30;;;16.90;81.60;;;;;;5026525;28;20021;-76
2022/09/25 01:25:33;;;;;;;5.95;3.30;;;16.90;81.70;;;;;;5045016;28;20013;-76
2022/09/25 01:28:14;;;;;;;5.13;3.10;;;16.90;81.70;;;;;;5045065;28;20110;-77
2022/09/25 01:30:41;;;;;;;;;;;16.90;81.70;;;;;;5043809;28;20123;-76
2022/09/25 01:33:15;;;;;;;4.65;2.78;;;16.90;81.70;;;;;;5044181;28;19909;-75
2022/09/25 01:36:01;;;;;;;5.20;3.08;;;16.90;81.70;;;;;;5026741;28;20041;-75
2022/09/25 01:38:48;;;;;;;5.43;3.20;;;16.90;81.70;;;;;;5026783;28;20124;-76
2022/09/25 01:41:36;;;;;;;4.95;2.70;;;16.90;81.70;;;;;;5047114;28;20028;-75
2022/09/25 01:44:08;;;;;;;4.90;2.80;;;16.90;81.60;;;;;;5030806;28;20106;-77
2022/09/25 01:46:47;;;;;;;5.50;2.88;;;16.90;81.60;;;;;;5048198;28;20461;-77
2022/09/25 01:49:34;;;;;;;4.80;2.90;;;16.90;81.60;;;;;;5030694;28;20025;-75
2022/09/25 01:52:04;;;;;;;5.15;3.10;;;16.90;81.60;;;;;;5030033;28;20374;-76
2022/09/25 01:54:36;;;;;;;4.75;2.70;;;16.90;81.50;;;;;;5030327;28;20032;-77
2022/09/25 01:57:12;;;;;;;5.43;2.75;;;16.90;81.40;;;;;;5048360;28;20040;-77
2022/09/25 02:00:03;;;;;;;4.43;2.92;;;16.90;81.50;;;;;;5030208;28;20033;-76
2022/09/25 02:02:34;;;;;;;5.03;2.88;;;16.90;81.50;;;;;;5033663;28;20788;-76
2022/09/25 02:05:25;;;;;;;4.97;3.10;;;16.90;81.60;;;;;;5047594;28;20040;-75
2022/09/25 02:08:06;;;;;;;4.72;2.88;;;16.90;81.60;;;;;;5037974;28;20025;-75
2022/09/25 02:10:47;;;;;;;4.90;2.95;;;16.90;81.70;;;;;;5047952;28;20044;-76
2022/09/25 02:13:40;;;;;;;;;;;16.90;81.70;;;;;;5028165;28;20030;-75
2022/09/25 02:16:18;;;;;;;4.93;2.80;;;16.80;81.60;;;;;;5032352;28;19916;-76
2022/09/25 02:21:54;;;;;;;5.65;3.00;;;16.80;82.20;;;;;;5027819;28;20110;-77
2022/09/25 02:24:38;;;;;;;;;;;16.80;81.70;;;;;;5022087;28;20024;-76
2022/09/25 02:27:04;;;;;;;5.47;3.03;;;16.90;81.80;;;;;;5046090;28;20046;-76
2022/09/25 02:29:29;;;;;;;4.53;2.80;;;16.80;81.70;;;;;;5047362;28;20057;-76
2022/09/25 02:32:04;;;;;;;5.03;3.00;;;16.80;81.70;;;;;;5047315;28;20029;-74
2022/09/25 02:34:31;;;;;;;4.82;2.85;;;16.80;81.70;;;;;;5047371;28;20098;-75
2022/09/25 02:36:57;;;;;;;4.57;2.90;;;16.80;81.70;;;;;;5047105;28;20059;-74
2022/09/25 02:39:26;;;;;;;4.43;2.55;;;16.90;81.80;;;;;;5029414;28;20509;-75
2022/09/25 02:42:12;;;;;;;5.07;2.80;;;16.80;81.70;;;;;;5047236;28;20035;-75
2022/09/25 02:45:05;;;;;;;5.18;2.80;;;16.90;81.80;;;;;;5028903;28;20028;-75
2022/09/25 02:48:00;;;;;;;4.53;2.67;;;16.90;81.70;;;;;;5021374;28;20072;-74
2022/09/25 02:50:41;;;;;;;4.35;2.58;;;16.90;81.70;;;;;;5036292;28;20031;-74
2022/09/25 02:53:34;;;;;;;4.70;2.80;;;16.90;81.60;;;;;;5041795;28;20056;-74
2022/09/25 02:56:23;;;;;;;4.75;2.55;;;16.90;81.60;;;;;;5044315;28;20029;-75
2022/09/25 02:58:56;;;;;;;4.10;2.42;;;16.90;81.50;;;;;;5028294;28;20041;-77
2022/09/25 03:01:25;;;;;;;4.53;2.60;;;16.90;81.60;;;;;;5046462;28;20063;-75
2022/09/25 03:03:54;;;;;;;4.32;2.35;;;16.80;81.60;;;;;;5028229;28;20075;-74
2022/09/25 03:06:22;;;;;;;4.43;2.58;;;16.90;81.60;;;;;;5044236;28;20540;-75
2022/09/25 03:08:53;;;;;;;4.75;2.63;;;16.90;81.70;;;;;;5025275;28;20473;-74
2022/09/25 03:11:20;;;;;;;4.40;2.53;;;16.80;81.60;;;;;;5028352;28;20107;-77
2022/09/25 03:13:58;;;;;;;3.88;2.50;;;16.90;81.70;;;;;;5041950;28;20060;-74
2022/09/25 03:16:38;;;;;;;4.65;2.70;;;16.80;81.70;;;;;;5046445;28;20027;-73
2022/09/25 03:19:03;;;;;;;4.25;2.40;;;16.80;81.70;;;;;;5045573;28;20082;-76
2022/09/25 03:21:29;;;;;;;3.85;2.38;;;16.80;81.80;;;;;;5046148;28;20025;-74
2022/09/25 03:23:55;;;;;;;4.00;2.40;;;16.80;81.70;;;;;;5026620;28;20060;-74
2022/09/25 03:26:22;;;;;;;4.55;2.67;;;16.80;81.80;;;;;;5046068;28;20025;-75
2022/09/25 03:28:48;;;;;;;4.00;2.47;;;16.80;81.80;;;;;;5024748;28;20025;-75
2022/09/25 03:31:13;;;;;;;4.60;2.70;;;16.80;81.80;;;;;;5018555;28;20025;-75
2022/09/25 03:33:40;;;;;;;4.28;2.40;;;16.80;81.80;;;;;;5044405;28;20025;-75
2022/09/25 03:36:18;;;;;;;5.28;2.60;;;16.80;81.80;;;;;;5027717;28;20086;-75
2022/09/25 03:38:46;;;;;;;4.32;2.58;;;16.80;81.80;;;;;;5027580;28;20140;-75
2022/09/25 03:41:14;;;;;;;4.32;2.58;;;16.80;81.80;;;;;;5027927;28;20056;-76
2022/09/25 03:43:41;;;;;;;4.57;2.70;;;16.80;81.80;;;;;;5028121;28;20025;-74
2022/09/25 03:46:10;;;;;;;4.13;2.50;;;16.80;81.90;;;;;;5045816;28;20451;-75
2022/09/25 03:48:36;;;;;;;3.35;2.30;;;16.80;81.80;;;;;;5024356;28;20017;-77
2022/09/25 03:51:03;;;;;;;4.88;2.40;;;16.90;81.80;;;;;;5035406;28;20036;-73
2022/09/25 03:53:30;;;;;;;4.28;2.40;;;16.90;81.80;;;;;;5027665;28;20036;-74
2022/09/25 03:55:56;;;;;;;3.72;2.13;;;16.90;81.80;;;;;;5042534;28;20025;-74
2022/09/25 03:58:21;;;;;;;4.10;2.40;;;16.90;81.60;;;;;;5046092;28;20393;-75
2022/09/25 04:00:47;;;;;;;3.95;2.20;;;16.90;81.60;;;;;;5025501;28;20581;-73
2022/09/25 04:03:13;;;;;;;3.45;2.20;;;16.90;81.60;;;;;;5020064;28;20116;-74
2022/09/25 04:05:41;;;;;;;4.20;2.40;;;16.90;81.70;;;;;;5027527;28;20267;-76
2022/09/25 04:08:06;;;;;;;4.65;2.40;;;16.90;81.70;;;;;;5027822;28;20470;-73
2022/09/25 04:10:32;;;;;;;4.38;2.33;;;16.80;81.70;;;;;;5044475;28;20116;-74
2022/09/25 04:12:58;;;;;;;4.72;2.50;;;16.80;81.70;;;;;;5028557;28;20603;-74
2022/09/25 04:15:23;;;;;;;4.43;2.65;;;16.80;81.80;;;;;;5027406;28;20033;-74
2022/09/25 04:17:51;;;;;;;4.78;2.30;;;16.80;81.70;;;;;;5037029;28;20119;-73
2022/09/25 04:20:17;;;;;;;3.78;2.30;;;16.80;81.80;;;;;;5045782;28;20098;-74
2022/09/25 04:22:43;;;;;;;4.15;2.17;;;16.80;81.80;;;;;;5046111;28;20450;-75
2022/09/25 04:25:08;;;;;;;4.22;2.30;;;16.80;81.80;;;;;;5044747;28;20075;-74
2022/09/25 04:27:35;;;;;;;3.75;2.13;;;16.80;81.80;;;;;;5046041;28;20021;-75
2022/09/25 04:30:02;;;;;;;4.65;2.53;;;16.80;81.80;;;;;;5027835;28;20033;-75
2022/09/25 04:35:31;;;;;;;3.30;2.00;;;16.80;81.80;;;;;;5003127;28;20037;-75
2022/09/25 04:37:57;;;;;;;3.83;2.20;;;16.80;81.90;;;;;;5003162;28;20426;-77
2022/09/25 04:40:22;;;;;;;4.50;2.40;;;16.80;81.90;;;;;;5022262;28;20053;-74
2022/09/25 04:42:47;;;;;;;3.75;2.13;;;16.80;81.90;;;;;;5027505;28;20029;-74
2022/09/25 04:45:14;;;;;;;3.95;2.20;;;16.80;81.90;;;;;;5046667;28;20557;-77
2022/09/25 04:47:40;;;;;;;3.72;2.10;;;16.80;81.80;;;;;;5027453;28;20532;-77
2022/09/25 04:50:06;;;;;;;3.47;2.10;;;16.80;81.80;;;;;;5027178;28;20021;-76
2022/09/25 04:52:31;;;;;;;4.07;2.03;;;16.90;81.90;;;;;;5044570;28;20405;-77
2022/09/25 04:54:57;;;;;;;3.78;2.05;;;16.90;81.80;;;;;;5045068;28;20036;-77
2022/09/25 04:57:25;;;;;;;3.72;2.20;;;16.90;81.90;;;;;;5027385;28;20029;-74
2022/09/25 04:59:51;;;;;;;3.45;2.00;;;16.90;81.70;;;;;;5027833;28;20401;-77
2022/09/25 05:02:16;;;;;;;5.45;2.20;;;16.90;81.60;;;;;;5044880;28;20025;-76
2022/09/25 05:04:41;;;;;;;4.63;2.47;;;16.90;81.70;;;;;;5027258;28;20541;-76
2022/09/25 05:07:07;;;;;;;3.55;2.00;;;16.90;81.70;;;;;;5045194;28;20033;-76
2022/09/25 05:09:33;;;;;;;3.88;2.10;;;16.90;81.70;;;;;;5045464;28;20041;-77
2022/09/25 05:11:59;;;;;;;3.85;2.20;;;16.80;81.70;;;;;;5044899;28;20025;-76
2022/09/25 05:14:24;;;;;;;3.72;2.10;;;16.80;81.80;;;;;;5045508;28;20029;-76
2022/09/25 05:16:50;;;;;;;3.03;1.80;;;16.80;81.80;;;;;;5049195;28;20029;-77
2022/09/25 05:19:16;;;;;;;4.18;2.10;;;16.80;81.80;;;;;;5049500;28;20036;-76
2022/09/25 05:21:42;;;;;;;3.78;2.25;;;16.80;81.80;;;;;;5049169;28;20417;-76
2022/09/25 05:24:08;;;;;;;4.13;2.13;;;16.80;81.80;;;;;;5049990;28;20104;-76
2022/09/25 05:26:36;;;;;;;4.00;2.08;;;16.80;81.80;;;;;;5049299;28;20053;-75
2022/09/25 05:29:03;;;;;;;3.25;1.90;;;16.80;81.80;;;;;;5049212;28;20564;-77
2022/09/25 05:31:32;;;;;;;3.00;2.00;;;16.80;81.80;;;;;;5049265;28;20054;-78
2022/09/25 05:33:58;;;;;;;3.85;1.80;;;16.80;81.80;;;;;;5048915;28;20029;-76
2022/09/25 05:36:23;;;;;;;3.47;1.85;;;16.80;81.90;;;;;;5039878;28;20079;-78
2022/09/25 05:38:49;;;;;;;3.58;2.00;;;16.80;81.90;;;;;;5045362;28;20082;-76
2022/09/25 05:41:15;;;;;;;3.45;2.00;;;16.80;81.90;;;;;;5043707;28;20410;-77
2022/09/25 05:43:49;;;;;;;3.90;1.77;;;16.80;81.80;;;;;;5029599;28;20029;-76
2022/09/25 05:46:15;;;;;;;3.58;2.10;;;16.80;81.90;;;;;;5048819;28;20032;-77
2022/09/25 05:48:40;;;;;;;3.97;2.10;;;16.80;81.80;;;;;;5030087;28;20028;-77
2022/09/25 05:51:06;;;;;;;3.58;2.10;;;16.80;81.90;;;;;;5029697;28;20036;-77
2022/09/25 05:53:31;;;;;;;3.67;2.00;;;16.80;81.90;;;;;;5047664;28;20025;-77
2022/09/25 05:55:59;;;;;;;3.72;1.92;;;16.80;81.80;;;;;;5027662;28;20386;-77
2022/09/25 05:58:25;;;;;;;2.88;1.60;;;16.80;81.90;;;;;;5023060;28;20029;-76
2022/09/25 06:00:51;;;;;;;3.60;2.00;;;16.90;81.80;;;;;;5026413;28;20117;-76
2022/09/25 06:03:17;;;;;;;4.03;2.10;;;16.90;81.60;;;;;;5046197;28;20156;-75
2022/09/25 06:05:45;;;;;;;3.63;1.88;;;16.90;81.70;;;;;;5029704;28;20418;-76
2022/09/25 06:08:12;;;;;;;3.40;1.80;;;16.90;81.70;;;;;;5039410;28;20021;-75
2022/09/25 06:10:38;;;;;;;3.42;1.77;;;16.80;81.70;;;;;;5024527;28;20017;-76
2022/09/25 06:13:04;;;;;;;3.00;1.73;;;16.80;81.70;;;;;;5047111;28;20115;-76
2022/09/25 06:15:37;;;;;;;3.83;2.08;;;16.80;81.70;;;;;;5030311;28;20163;-77
2022/09/25 06:18:04;;;;;;;3.20;1.90;;;16.80;81.80;;;;;;5048206;28;20032;-75
2022/09/25 06:20:29;;;;;;;3.33;1.90;;;16.80;81.80;;;;;;5031366;28;20040;-76
2022/09/25 06:22:56;;;;;;;2.83;1.70;;;16.80;81.80;;;;;;5057729;28;20021;-80
2022/09/25 06:25:24;;;;;;;4.20;2.00;;;16.80;81.80;;;;;;5050325;28;20490;-75
2022/09/25 06:27:54;;;;;;;3.17;1.80;;;16.80;81.80;;;;;;5048717;28;20029;-75
2022/09/25 06:30:22;;;;;;;2.85;1.67;;;16.80;81.70;;;;;;5024600;28;20032;-75
2022/09/25 06:32:49;;;;;;;3.08;1.77;;;16.80;81.80;;;;;;5019247;28;20029;-74
2022/09/25 06:35:15;;;;;;;3.65;1.75;;;16.80;81.80;;;;;;5045048;28;20028;-74
2022/09/25 06:37:41;;;;;;;2.97;1.60;;;16.80;81.70;;;;;;5027107;28;20032;-75
2022/09/25 06:40:07;;;;;;;4.53;1.80;;;16.80;81.80;;;;;;5027357;28;20029;-74
2022/09/25 06:42:34;;;;;;;3.95;1.90;;;16.80;81.80;;;;;;5009058;28;20026;-74
2022/09/25 06:45:00;;;;;;;4.03;2.10;;;16.80;81.70;;;;;;5009886;28;20470;-74
2022/09/25 06:47:25;;;;;;;3.67;1.92;;;16.80;81.60;;;;;;5027457;28;20029;-75
2022/09/25 06:49:51;;;;;;;2.50;1.60;;;16.80;81.60;;;;;;5036482;28;20091;-75
2022/09/25 06:52:17;;;;;;;3.67;1.67;;;16.80;81.60;;;;;;5027380;28;20029;-75
2022/09/25 06:54:42;;;;;;;3.55;1.60;;;16.90;81.60;;;;;;5038117;28;20879;-75
2022/09/25 06:57:08;;;;;;;3.03;1.70;;;16.90;81.50;;;;;;5045364;28;20425;-75
2022/09/25 06:59:34;;;;;;;2.90;1.63;;;16.90;81.40;;;;;;5041777;28;20044;-74
2022/09/25 07:03:43;;;;;;;3.20;1.65;;;16.90;81.40;;;;;;5025707;28;20398;-76
2022/09/25 07:04:50;;;;;;;3.28;1.90;;;16.90;81.40;;;;;;5045228;28;20089;-76
2022/09/25 07:07:18;;;;;;;3.45;2.10;;;16.90;81.40;;;;;;5029697;28;20024;-76
2022/09/25 07:09:43;;;;;;;3.05;1.77;;;17.00;81.30;;;;;;5024705;28;20546;-76
2022/09/25 07:12:10;;;;;;;3.35;1.75;;;17.00;81.10;;;;;;5044046;28;20804;-75
2022/09/25 07:14:36;;;;;;;2.78;1.60;;;17.00;81.00;;;;;;5042321;28;20029;-75
2022/09/25 07:17:01;;;;;;;2.95;1.80;;;17.00;80.90;;;;;;5037881;28;20512;-76
2022/09/25 07:19:27;;;;;;;3.55;1.58;;;17.10;80.90;;;;;;5050207;28;20033;-76
2022/09/25 07:21:53;;;;;;;3.50;1.70;;;17.10;81.00;;;;;;5044366;28;20075;-76
2022/09/25 07:24:20;;;;;;;2.65;1.50;;;17.10;81.00;;;;;;5027165;28;20500;-76
2022/09/25 07:26:46;;;;;;;2.88;1.60;;;17.10;81.20;;;;;;5025291;28;20456;-77
2022/09/25 07:29:12;;;;;;;3.47;1.80;;;17.00;81.00;;;;;;5027364;28;20048;-76
2022/09/25 07:31:37;;;;;;;2.92;1.83;;;17.10;80.80;;;;;;5045633;28;20032;-75
2022/09/25 07:34:07;;;;;;;2.33;1.58;;;17.10;80.60;;;;;;5028639;28;20037;-76
2022/09/25 07:36:34;;;;;;;3.17;1.73;;;17.20;80.60;;;;;;5027335;28;20041;-76
2022/09/25 07:39:00;;;;;;;2.97;1.75;;;17.30;80.40;;;;;;5024441;28;20037;-76
2022/09/25 07:41:26;;;;;;;3.58;1.80;;;17.30;80.20;;;;;;5033575;28;20044;-76
2022/09/25 07:43:52;;;;;;;3.08;1.63;;;17.40;80.00;;;;;;5043556;28;20112;-76
2022/09/25 07:46:18;;;;;;;2.53;1.60;;;17.40;79.60;;;;;;5020389;28;20024;-82
2022/09/25 07:48:46;;;;;;;3.33;1.85;;;17.50;79.60;;;;;;5024796;28;20056;-75
2022/09/25 07:51:12;;;;;;;3.25;1.63;;;17.50;79.20;;;;;;5022777;28;20044;-76
2022/09/25 07:53:39;;;;;;;3.35;1.80;;;17.50;79.10;;;;;;5026726;28;20029;-75
2022/09/25 07:56:04;;;;;;;2.83;1.52;;;17.60;78.80;;;;;;5046213;28;20053;-77
2022/09/25 07:58:30;;;;;;;3.00;1.60;;;17.80;78.60;;;;;;5045850;28;20110;-76
2022/09/25 08:01:00;;;;;;;2.42;1.40;;;17.80;78.50;;;;;;5027099;28;20036;-75
2022/09/25 08:03:27;;;;;;;2.92;1.40;;;17.80;78.20;;;;;;5027735;28;20092;-76
2022/09/25 08:05:58;;;;;;;2.47;1.60;;;17.90;78.00;;;;;;5045652;28;20170;-76
2022/09/25 08:08:24;;;;;;;2.55;1.60;;;17.80;78.00;;;;;;5027443;28;20029;-76
2022/09/25 08:10:50;;;;;;;3.30;1.60;;;17.90;78.00;;;;;;5025578;28;20426;-78
2022/09/25 08:13:19;;;;;;;2.65;1.50;;;17.80;78.00;;;;;;5045576;28;20048;-75
2022/09/25 08:15:45;;;;;;;2.10;1.45;;;17.80;78.20;;;;;;5039516;28;20037;-76
2022/09/25 08:18:10;;;;;;;2.90;1.67;;;17.70;78.40;;;;;;5045772;28;20032;-75
2022/09/25 08:20:38;;;;;;;2.95;1.60;;;17.70;78.60;;;;;;5046620;28;20781;-76
2022/09/25 08:23:05;;;;;;;2.97;1.70;;;17.70;78.70;;;;;;5028344;28;20021;-77
2022/09/25 08:25:30;;;;;;;2.08;1.40;;;17.70;78.80;;;;;;5031350;28;20108;-76
2022/09/25 08:27:56;;;;;;;2.53;1.50;;;17.70;78.70;;;;;;5039633;28;20485;-76
2022/09/25 08:30:22;;;;;;;2.78;1.50;;;17.70;78.80;;;;;;5028227;28;20021;-75
2022/09/25 08:32:47;;;;;;;2.90;1.60;;;17.80;78.60;;;;;;5027731;28;20035;-75
2022/09/25 08:35:13;;;;;;;1.83;1.30;;;17.80;78.50;;;;;;5045994;28;20045;-76
2022/09/25 08:37:40;;;;;;;2.50;1.40;;;17.90;78.30;;;;;;5028220;28;20047;-76
2022/09/25 08:40:16;;;;;;;2.80;1.50;;;18.00;78.10;;;;;;5020120;28;20079;-75
2022/09/25 08:42:43;;;;;;;2.30;1.40;;;18.00;77.90;;;;;;5026232;28;20498;-76
2022/09/25 08:51:09;;;;;;;2.45;1.45;;;18.10;77.40;;;;;;5036602;28;20527;-75
2022/09/25 08:53:36;;;;;;;2.83;1.55;;;18.20;77.40;;;;;;5029433;28;20036;-76
2022/09/25 08:56:19;;;;;;;2.70;1.55;;;18.20;77.40;;;;;;5028184;28;20033;-75
2022/09/25 08:59:00;;;;;;;3.25;1.50;;;18.20;77.20;;;;;;5027478;28;20025;-76
2022/09/25 09:01:28;;;;;;;2.50;1.45;;;18.30;77.20;;;;;;5027714;28;20029;-76
2022/09/25 09:04:05;;;;;;;2.38;1.40;;;18.30;77.10;;;;;;5045564;28;20028;-75
2022/09/25 09:06:33;;;;;;;2.40;1.30;;;18.30;77.00;;;;;;5045715;28;20091;-76
2022/09/25 09:09:16;;;;;;;1.80;1.27;;;18.40;76.80;;;;;;5028908;28;20017;-76
2022/09/25 09:12:10;;;;;;;2.92;1.40;;;18.40;76.80;;;;;;5023163;28;20060;-76
2022/09/25 09:14:43;;;;;;;2.28;1.30;;;18.40;76.60;;;;;;5027600;28;20017;-76
2022/09/25 09:17:16;;;;;;;2.00;1.30;;;18.40;76.80;;;;;;5027739;28;20116;-75
2022/09/25 09:20:06;;;;;;;2.00;1.35;;;18.40;76.70;;;;;;5027471;28;20040;-75
2022/09/25 09:22:38;;;;;;;2.92;1.50;;;18.40;76.70;;;;;;5048021;28;20489;-75
2022/09/25 09:25:42;;;;;;;3.03;1.63;;;18.50;76.70;;;;;;5052141;28;20041;-80
2022/09/25 09:28:52;;;;;;;2.33;1.40;;;18.50;76.70;;;;;;5053836;28;20021;-79
2022/09/25 09:31:31;;;;;;;2.42;1.58;;;18.50;76.80;;;;;;5044166;28;20028;-80
2022/09/25 09:34:49;;;;;;;3.05;1.33;;;18.50;76.90;;;;;;5036507;28;20025;-78
2022/09/25 09:37:20;;;;;;;3.20;1.50;;;18.40;77.00;;;;;;5000616;28;20030;-77
2022/09/25 09:40:02;;;;;;;2.33;1.30;;;18.30;77.30;;;;;;5034474;28;20055;-78
2022/09/25 09:42:35;;;;;;;2.22;1.20;;;18.30;77.30;;;;;;5029229;28;20263;-79
2022/09/25 09:45:28;;;;;;;2.03;1.30;;;18.30;77.20;;;;;;5048967;28;20029;-78
2022/09/25 09:48:23;;;;;;;2.58;1.40;;;18.40;77.30;;;;;;5031399;28;20029;-78
2022/09/25 09:50:52;;;;;;;2.90;1.35;;;18.40;77.20;;;;;;5024095;28;20678;-78
2022/09/25 09:53:33;;;;;;;2.33;1.35;;;18.40;77.30;;;;;;5053425;28;20048;-80
2022/09/25 09:56:08;;;;;;;2.25;1.20;;;18.30;77.30;;;;;;5053285;28;20029;-79
2022/09/25 09:59:00;;;;;;;2.17;1.27;;;18.20;77.50;;;;;;5053809;28;20028;-78
2022/09/25 10:01:32;;;;;;;2.15;1.30;;;18.20;77.80;;;;;;5029180;28;20028;-78
2022/09/25 10:04:04;;;;;;;;;;;18.10;77.90;;;;;;5037989;28;20153;-79
2022/09/25 10:06:33;;;;;;;1.90;1.20;;;18.10;78.10;;;;;;5056871;28;19912;-80
2022/09/25 10:08:59;;;;;;;2.10;1.30;;;18.10;78.20;;;;;;5056043;28;20040;-80
2022/09/25 10:11:25;;;;;;;2.80;1.15;;;18.00;78.20;;;;;;5055457;28;20017;-79
2022/09/25 10:13:52;;;;;;;2.17;1.30;;;18.00;78.20;;;;;;5055646;28;20033;-79
2022/09/25 10:16:23;;;;;;;2.17;1.30;;;18.00;78.10;;;;;;5024551;28;20032;-77
2022/09/25 10:18:56;;;;;;;3.05;1.35;;;18.00;78.00;;;;;;5054099;28;20525;-78
2022/09/25 10:21:26;;;;;;;2.10;1.20;;;18.00;78.10;;;;;;5039729;28;20075;-78
2022/09/25 10:23:57;;;;;;;2.92;1.30;;;18.00;78.30;;;;;;5056277;28;20025;-79
2022/09/25 10:26:25;;;;;;;1.83;1.10;;;17.90;78.40;;;;;;5038683;28;20021;-80
2022/09/25 10:28:51;;;;;;;2.05;1.20;;;17.90;78.40;;;;;;5054613;28;20071;-80
2022/09/25 10:31:19;;;;;;;2.20;1.33;;;17.80;78.50;;;;;;5053706;28;20017;-77
2022/09/25 10:33:57;;;;;;;3.40;1.20;;;17.80;78.50;;;;;;5042246;28;20041;-78
2022/09/25 10:36:32;;;;;;;2.70;1.20;;;17.80;78.60;;;;;;5056490;28;20021;-76
2022/09/25 10:38:58;;;;;;;3.53;1.30;;;17.90;78.50;;;;;;5036972;28;20031;-78
2022/09/25 10:41:24;;;;;;;2.33;1.20;;;17.90;78.40;;;;;;5047407;28;20025;-78
2022/09/25 10:43:59;;;;;;;1.98;1.13;;;18.00;78.40;;;;;;5070981;28;20033;-78
2022/09/25 10:52:20;;;;;;;4.38;1.40;;;17.90;78.50;;;;;;4994166;28;20027;-78
2022/09/25 10:54:46;;;;;;;1.80;1.20;;;17.90;78.60;;;;;;5041737;28;20053;-79
2022/09/25 10:57:36;;;;;;;1.92;1.08;;;17.90;78.80;;;;;;5037611;28;20036;-79
2022/09/25 11:00:17;;;;;;;2.60;1.27;;;17.80;78.90;;;;;;5036475;28;20047;-78
2022/09/25 11:02:45;;;;;;;;;;;17.80;79.00;;;;;;5055126;28;20674;-78
2022/09/25 11:05:25;;;;;;;2.08;1.25;;;17.80;79.10;;;;;;5054602;28;19913;-78
2022/09/25 11:07:53;;;;;;;2.03;1.20;;;17.80;79.00;;;;;;5054889;28;20013;-78
2022/09/25 11:10:22;;;;;;;3.03;1.40;;;17.80;78.90;;;;;;5055110;28;20033;-77
2022/09/25 11:12:49;;;;;;;1.42;1.17;;;17.90;78.80;;;;;;5054022;28;20100;-79
2022/09/25 11:15:20;;;;;;;2.20;1.10;;;18.00;78.60;;;;;;5037268;28;20028;-76
2022/09/25 11:17:50;;;;;;;2.28;0.93;;;18.00;78.30;;;;;;5054868;28;20024;-78
2022/09/25 11:20:16;;;;;;;2.38;1.10;;;18.00;78.30;;;;;;5036426;28;20025;-78
2022/09/25 11:22:52;;;;;;;2.13;1.30;;;18.00;78.30;;;;;;5037644;28;20096;-76
2022/09/25 11:25:26;;;;;;;2.08;1.17;;;18.00;78.30;;;;;;5039020;28;20048;-80
2022/09/25 11:28:12;;;;;;;2.45;1.08;;;18.00;78.00;;;;;;5056500;28;20109;-79
2022/09/25 11:30:50;;;;;;;2.85;1.30;;;18.00;78.20;;;;;;5058816;28;20029;-79
2022/09/25 11:33:31;;;;;;;2.47;1.05;;;18.00;78.30;;;;;;5040780;28;20032;-80
2022/09/25 11:35:59;;;;;;;;;;;18.10;78.20;;;;;;5059212;28;20028;-80
2022/09/25 11:41:42;;;;;;;2.33;1.20;;;18.10;78.20;;;;;;5059144;28;20060;-79
2022/09/25 11:44:41;;;;;;;2.05;1.10;;;18.10;78.10;;;;;;5058104;28;20024;-80
2022/09/25 11:47:23;;;;;;;2.28;1.10;;;18.10;78.10;;;;;;5057000;28;20095;-80
2022/09/25 11:49:52;;;;;;;2.15;1.08;;;18.10;78.20;;;;;;5055288;28;20102;-79
2022/09/25 11:52:40;;;;;;;2.67;1.15;;;18.10;78.20;;;;;;5054559;28;20025;-78
2022/09/25 11:55:11;;;;;;;2.20;1.10;;;18.10;78.20;;;;;;5056721;28;20036;-79
2022/09/25 11:57:57;;;;;;;2.22;1.05;;;18.10;78.10;;;;;;5054072;28;20025;-79
2022/09/25 12:00:35;;;;;;;1.58;1.00;;;18.10;78.20;;;;;;5037555;28;20067;-79
2022/09/25 12:03:32;;;;;;;2.50;1.05;;;18.10;78.20;;;;;;5056459;28;20049;-77
2022/09/25 12:06:13;;;;;;;3.63;1.23;;;18.10;78.30;;;;;;5038076;28;20029;-78
2022/09/25 12:08:57;;;;;;;;;;;18.00;78.30;;;;;;5056618;28;20018;-79
2022/09/25 12:11:36;;;;;;;2.55;1.10;;;18.00;78.30;;;;;;5037808;28;20353;-78
2022/09/25 12:14:24;;;;;;;2.05;1.00;;;18.10;78.30;;;;;;5037860;28;20457;-78
2022/09/25 12:17:16;;;;;;;2.85;1.17;;;18.10;78.10;;;;;;5045395;28;20553;-78
2022/09/25 12:20:03;;;;;;;4.78;1.40;;;18.10;77.90;;;;;;5032782;28;20037;-79
2022/09/25 12:22:42;;;;;;;7.60;1.30;;;18.20;77.60;;;;;;5034138;28;20117;-78
2022/09/25 12:25:13;;;;;;;3.88;1.00;;;18.20;77.40;;;;;;5053634;28;20017;-75
2022/09/25 12:27:49;;;;;;;7.45;1.25;;;18.20;77.90;;;;;;5051986;28;20017;-76
2022/09/25 12:30:20;;;;;;;2.53;1.13;;;18.20;77.40;;;;;;5054586;28;20025;-77
2022/09/25 12:32:52;;;;;;;2.25;1.10;;;18.20;77.50;;;;;;5034912;28;20043;-77
2022/09/25 12:35:37;;;;;;;2.63;1.20;;;18.10;77.60;;;;;;5053114;28;20029;-78
2022/09/25 12:38:09;;;;;;;4.70;1.15;;;18.10;77.80;;;;;;5034876;28;20025;-74
2022/09/25 12:40:50;;;;;;;3.35;1.00;;;18.00;77.90;;;;;;5052516;28;20117;-78
2022/09/25 12:43:23;;;;;;;4.00;1.23;;;18.00;78.00;;;;;;5053236;28;20021;-75
2022/09/25 12:46:11;;;;;;;3.67;1.17;;;18.00;78.10;;;;;;5052638;28;20021;-78
2022/09/25 12:48:44;;;;;;;3.25;1.20;;;18.00;78.10;;;;;;5052517;28;20096;-79
2022/09/25 12:51:14;;;;;;;3.85;1.10;;;18.10;78.10;;;;;;5035582;28;20570;-79
2022/09/25 12:53:55;;;;;;;5.30;1.13;;;18.00;78.10;;;;;;5033768;28;20139;-78
2022/09/25 12:56:32;;;;;;;2.33;0.90;;;18.00;78.20;;;;;;5031217;28;20029;-79
2022/09/25 12:59:05;;;;;;;2.88;1.10;;;18.00;78.80;;;;;;5032080;28;20049;-78
2022/09/25 13:01:39;;;;;;;4.28;1.27;;;18.00;78.40;;;;;;5014459;28;20104;-78
2022/09/25 13:04:09;;;;;;;3.10;0.93;;;17.90;78.50;;;;;;5036302;28;20068;-76
2022/09/25 13:06:48;;;;;;;2.08;1.10;;;17.90;78.60;;;;;;5023093;28;20384;-73
2022/09/25 13:09:23;;;;;;;3.35;1.10;;;17.90;78.80;;;;;;5048218;28;20039;-75
2022/09/25 13:11:54;;;;;;;2.95;1.00;;;17.90;78.60;;;;;;5033898;28;20047;-75
2022/09/25 13:14:33;;;;;;;3.08;1.10;;;17.90;78.50;;;;;;5034247;28;20017;-75
2022/09/25 13:17:00;;;;;;;2.60;1.00;;;17.90;78.50;;;;;;5052087;28;20385;-76
2022/09/25 13:19:27;;;;;;;3.92;1.13;;;17.90;78.40;;;;;;5051786;28;20021;-75
2022/09/25 13:22:20;;;;;;;3.58;1.10;;;17.90;78.40;;;;;;5033722;28;20028;-75
2022/09/25 13:25:07;;;;;;;2.60;0.93;;;17.90;78.30;;;;;;5033982;28;20029;-77
2022/09/25 13:27:44;;;;;;;2.72;1.10;;;17.90;78.40;;;;;;5051115;28;20486;-75
2022/09/25 13:30:25;;;;;;;2.38;1.00;;;17.90;78.50;;;;;;5034013;28;20029;-77
2022/09/25 13:32:51;;;;;;;;;;;17.80;78.60;;;;;;5034175;28;20119;-77